createdAt,value
2022-12-28T00:00:23.068Z,63.86
2022-12-28T00:03:30.797Z,64.07
2022-12-28T00:06:24.347Z,62.04
2022-12-28T00:09:13.520Z,60.53
2022-12-28T00:12:01.374Z,59.60
2022-12-28T00:14:49.272Z,59.14
2022-12-28T00:17:37.178Z,60.14
2022-12-28T00:20:25.375Z,63.99
2022-12-28T00:23:13.435Z,64.19
2022-12-28T00:26:13.416Z,62.31
2022-12-28T00:29:05.227Z,60.72
2022-12-28T00:31:54.151Z,60.14
2022-12-28T00:34:45.162Z,59.60
2022-12-28T00:37:33.324Z,59.03
2022-12-28T00:40:24.136Z,59.61
2022-12-28T00:43:12.943Z,63.93
2022-12-28T00:46:01.546Z,64.44
2022-12-28T00:48:49.825Z,62.32
2022-12-28T00:51:37.941Z,60.57
2022-12-28T00:54:26.370Z,59.37
2022-12-28T00:57:13.945Z,60.27
2022-12-28T01:00:01.543Z,63.87
2022-12-28T01:02:49.612Z,64.77
2022-12-28T01:05:41.297Z,62.65
2022-12-28T01:08:30.034Z,60.49
2022-12-28T01:11:23.609Z,59.24
2022-12-28T01:14:11.709Z,58.79
2022-12-28T01:17:00.430Z,62.45
2022-12-28T01:19:53.772Z,64.67
2022-12-28T01:22:42.003Z,62.89
2022-12-28T01:25:29.997Z,61.81
2022-12-28T01:28:20.408Z,60.61
2022-12-28T01:31:14.712Z,60.52
2022-12-28T01:34:03.330Z,58.86
2022-12-28T01:36:51.439Z,59.94
2022-12-28T01:39:39.786Z,64.74
2022-12-28T01:42:27.778Z,63.85
2022-12-28T01:45:22.773Z,62.08
2022-12-28T01:48:25.119Z,61.07
2022-12-28T01:51:13.760Z,60.50
2022-12-28T01:54:03.494Z,60.28
2022-12-28T01:56:52.368Z,59.90
2022-12-28T01:59:46.814Z,59.93
2022-12-28T02:02:36.597Z,59.49
2022-12-28T02:05:30.206Z,59.17
2022-12-28T02:08:41.423Z,62.79
2022-12-28T02:11:29.835Z,65.00
2022-12-28T02:14:20.217Z,62.90
2022-12-28T02:17:11.948Z,61.96
2022-12-28T02:20:00.507Z,59.91
2022-12-28T02:22:57.360Z,58.86
2022-12-28T02:25:56.482Z,61.01
2022-12-28T02:28:53.187Z,64.15
2022-12-28T02:31:51.773Z,63.71
2022-12-28T02:35:28.901Z,61.88
2022-12-28T02:38:25.935Z,60.20
2022-12-28T02:41:20.628Z,58.49
2022-12-28T02:44:09.949Z,59.92
2022-12-28T02:47:17.626Z,64.55
2022-12-28T02:50:08.959Z,65.36
2022-12-28T02:53:13.018Z,63.43
2022-12-28T02:56:53.470Z,61.77
2022-12-28T02:59:57.810Z,61.03
2022-12-28T03:03:58.438Z,60.15
2022-12-28T03:07:16.909Z,59.33
2022-12-28T03:10:35.772Z,63.10
2022-12-28T03:13:43.774Z,64.17
2022-12-28T03:16:57.883Z,62.57
2022-12-28T03:20:13.983Z,60.99
2022-12-28T03:23:24.507Z,58.71
2022-12-28T03:26:32.216Z,59.55
2022-12-28T03:29:42.301Z,63.55
2022-12-28T03:32:30.842Z,62.75
2022-12-28T03:35:23.536Z,61.54
2022-12-28T03:38:27.236Z,61.15
2022-12-28T03:41:31.625Z,59.69
2022-12-28T03:44:32.494Z,59.60
2022-12-28T03:47:24.064Z,62.49
2022-12-28T03:50:12.817Z,64.19
2022-12-28T03:53:01.000Z,62.68
2022-12-28T03:55:49.715Z,61.19
2022-12-28T03:58:40.011Z,60.75
2022-12-28T04:01:29.498Z,59.79
2022-12-28T04:04:17.416Z,59.47
2022-12-28T04:07:05.407Z,61.10
2022-12-28T04:09:53.144Z,64.17
2022-12-28T04:12:41.055Z,63.71
2022-12-28T04:16:01.554Z,62.14
2022-12-28T04:18:50.090Z,60.33
2022-12-28T04:21:38.049Z,59.60
2022-12-28T04:24:26.219Z,59.41
2022-12-28T04:27:14.565Z,62.44
2022-12-28T04:30:02.506Z,64.04
2022-12-28T04:32:52.229Z,62.06
2022-12-28T04:35:40.246Z,60.59
2022-12-28T04:38:28.292Z,60.25
2022-12-28T04:41:16.256Z,58.63
2022-12-28T04:44:04.237Z,61.29
2022-12-28T04:46:51.862Z,63.72
2022-12-28T04:49:40.655Z,63.37
2022-12-28T04:52:28.983Z,62.15
2022-12-28T04:55:32.873Z,60.78
2022-12-28T04:58:21.377Z,59.71
2022-12-28T05:01:13.918Z,58.91
2022-12-28T05:04:02.080Z,62.95
2022-12-28T05:06:49.994Z,64.40
2022-12-28T05:09:38.082Z,62.65
2022-12-28T05:12:26.674Z,61.46
2022-12-28T05:15:14.480Z,61.03
2022-12-28T05:18:02.415Z,60.22
2022-12-28T05:20:50.410Z,59.35
2022-12-28T05:23:39.300Z,58.32
2022-12-28T05:26:29.649Z,63.25
2022-12-28T05:29:17.596Z,64.83
2022-12-28T05:32:06.297Z,63.20
2022-12-28T05:34:54.437Z,61.67
2022-12-28T05:37:42.459Z,60.53
2022-12-28T05:40:34.754Z,59.37
2022-12-28T05:43:22.532Z,60.76
2022-12-28T05:46:16.250Z,64.95
2022-12-28T05:49:04.124Z,64.86
2022-12-28T05:51:52.127Z,63.49
2022-12-28T05:54:39.764Z,63.12
2022-12-28T05:57:27.737Z,62.05
2022-12-28T06:00:15.540Z,61.69
2022-12-28T06:03:03.468Z,61.54
2022-12-28T06:05:51.155Z,61.32
2022-12-28T06:08:39.998Z,61.64
2022-12-28T06:11:29.788Z,61.66
2022-12-28T06:14:17.860Z,61.37
2022-12-28T06:17:05.941Z,61.18
2022-12-28T06:19:53.889Z,61.24
2022-12-28T06:22:41.905Z,60.98
2022-12-28T06:25:30.181Z,61.22
2022-12-28T06:28:17.947Z,61.56
2022-12-28T06:31:27.694Z,61.48
2022-12-28T06:34:16.742Z,61.66
2022-12-28T06:37:04.678Z,61.69
2022-12-28T06:39:52.665Z,61.37
2022-12-28T06:42:40.878Z,61.68
2022-12-28T06:45:29.015Z,61.56
2022-12-28T06:48:16.763Z,61.70
2022-12-28T06:51:08.110Z,61.82
2022-12-28T06:53:57.249Z,61.70
2022-12-28T06:56:45.056Z,61.95
2022-12-28T06:59:33.609Z,62.16
2022-12-28T07:02:21.751Z,61.57
2022-12-28T07:05:09.964Z,61.58
2022-12-28T07:07:57.967Z,61.34
2022-12-28T07:10:46.961Z,61.27
2022-12-28T07:13:35.432Z,60.83
2022-12-28T07:16:25.587Z,60.69
2022-12-28T07:19:13.346Z,60.57
2022-12-28T07:22:01.215Z,60.23
2022-12-28T07:24:48.975Z,60.22
2022-12-28T07:27:36.952Z,59.94
2022-12-28T07:30:24.885Z,59.83
2022-12-28T07:33:12.566Z,59.18
2022-12-28T07:36:00.471Z,61.57
2022-12-28T07:38:49.276Z,64.63
2022-12-28T07:41:37.198Z,63.52
2022-12-28T07:44:29.544Z,62.63
2022-12-28T07:47:18.344Z,61.62
2022-12-28T07:50:06.739Z,61.54
2022-12-28T07:52:55.159Z,61.10
2022-12-28T07:55:43.718Z,60.83
2022-12-28T07:58:31.521Z,60.56
2022-12-28T08:01:21.797Z,60.14
2022-12-28T08:04:14.074Z,59.92
2022-12-28T08:07:01.720Z,60.12
2022-12-28T08:09:49.855Z,60.32
2022-12-28T08:12:37.850Z,60.40
2022-12-28T08:15:26.040Z,60.79
2022-12-28T08:18:13.713Z,60.80
2022-12-28T08:21:08.711Z,60.68
2022-12-28T08:23:57.262Z,60.81
2022-12-28T08:26:47.610Z,61.18
2022-12-28T08:29:35.883Z,61.03
2022-12-28T08:32:23.736Z,61.06
2022-12-28T08:35:12.973Z,61.16
2022-12-28T08:38:01.147Z,60.73
2022-12-28T08:40:57.899Z,61.00
2022-12-28T08:43:46.408Z,61.34
2022-12-28T08:46:36.229Z,62.06
2022-12-28T08:49:25.254Z,62.11
2022-12-28T08:52:13.368Z,63.01
2022-12-28T08:55:01.550Z,62.96
2022-12-28T08:57:49.521Z,62.21
2022-12-28T09:00:37.556Z,62.24
2022-12-28T09:03:25.874Z,62.73
2022-12-28T09:06:18.246Z,62.39
2022-12-28T09:09:10.852Z,62.16
2022-12-28T09:11:58.761Z,62.75
2022-12-28T09:14:46.776Z,62.35
2022-12-28T09:17:35.109Z,61.81
2022-12-28T09:20:23.179Z,62.05
2022-12-28T09:23:11.269Z,61.78
2022-12-28T09:26:16.507Z,61.61
2022-12-28T09:29:08.974Z,61.63
2022-12-28T09:31:57.958Z,61.69
2022-12-28T09:34:45.912Z,61.58
2022-12-28T09:37:33.979Z,62.14
2022-12-28T09:40:21.972Z,62.84
2022-12-28T09:43:13.155Z,62.80
2022-12-28T09:46:03.321Z,62.27
2022-12-28T09:48:58.037Z,62.59
2022-12-28T09:52:04.918Z,63.09
2022-12-28T09:54:53.711Z,63.15
2022-12-28T09:58:00.587Z,62.42
2022-12-28T10:00:56.196Z,62.20
2022-12-28T10:03:46.471Z,62.32
2022-12-28T10:06:36.831Z,62.44
2022-12-28T10:09:29.837Z,62.37
2022-12-28T10:12:24.706Z,62.28
2022-12-28T10:15:15.843Z,61.89
2022-12-28T10:18:05.769Z,61.83
2022-12-28T10:20:55.968Z,60.60
2022-12-28T10:24:12.471Z,60.73
2022-12-28T10:26:58.945Z,61.20
2022-12-28T10:29:46.883Z,61.24
2022-12-28T10:33:02.086Z,61.04
2022-12-28T10:35:54.705Z,60.69
2022-12-28T10:38:49.325Z,60.70
2022-12-28T10:41:40.847Z,60.74
2022-12-28T10:44:41.579Z,61.02
2022-12-28T10:47:36.118Z,61.01
2022-12-28T10:50:49.639Z,61.11
2022-12-28T10:53:51.459Z,61.39
2022-12-28T10:56:50.030Z,61.81
2022-12-28T10:59:39.823Z,61.43
2022-12-28T11:02:32.732Z,61.26
2022-12-28T11:05:24.826Z,61.69
2022-12-28T11:08:16.868Z,61.78
2022-12-28T11:11:05.082Z,61.90
2022-12-28T11:14:06.130Z,62.05
2022-12-28T11:16:54.601Z,61.97
2022-12-28T11:19:42.958Z,62.22
2022-12-28T11:22:32.100Z,61.72
2022-12-28T11:25:31.470Z,61.44
2022-12-28T11:28:22.641Z,60.97
2022-12-28T11:31:21.854Z,61.00
2022-12-28T11:34:18.237Z,60.74
2022-12-28T11:37:13.863Z,61.02
2022-12-28T11:40:01.785Z,61.22
2022-12-28T11:42:56.233Z,59.96
2022-12-28T11:45:56.343Z,59.91
2022-12-28T11:48:44.266Z,59.83
2022-12-28T11:51:37.746Z,59.93
2022-12-28T11:54:59.258Z,59.84
2022-12-28T11:57:47.788Z,60.28
2022-12-28T12:00:38.797Z,62.98
2022-12-28T12:03:59.266Z,62.94
2022-12-28T12:06:48.735Z,61.15
2022-12-28T12:09:38.714Z,59.46
2022-12-28T12:12:29.522Z,59.85
2022-12-28T12:15:25.494Z,63.36
2022-12-28T12:18:25.665Z,63.40
2022-12-28T12:21:29.490Z,61.37
2022-12-28T12:24:35.425Z,59.78
2022-12-28T12:27:39.564Z,59.26
2022-12-28T12:30:29.926Z,61.30
2022-12-28T12:33:27.091Z,64.42
2022-12-28T12:36:40.621Z,63.06
2022-12-28T12:39:59.640Z,61.35
2022-12-28T12:43:18.559Z,60.59
2022-12-28T12:46:09.024Z,59.60
2022-12-28T12:49:23.881Z,60.88
2022-12-28T12:52:53.248Z,63.35
2022-12-28T12:56:13.529Z,61.98
2022-12-28T12:59:38.765Z,60.80
2022-12-28T13:02:54.355Z,60.19
2022-12-28T13:05:58.452Z,59.07
2022-12-28T13:09:03.286Z,62.10
2022-12-28T13:11:53.952Z,64.26
2022-12-28T13:14:52.973Z,62.50
2022-12-28T13:18:11.231Z,60.69
2022-12-28T13:21:12.548Z,60.22
2022-12-28T13:24:00.874Z,59.88
2022-12-28T13:26:49.493Z,59.40
2022-12-28T13:29:41.025Z,61.41
2022-12-28T13:32:38.531Z,64.14
2022-12-28T13:35:34.727Z,62.66
2022-12-28T13:38:22.813Z,61.24
2022-12-28T13:41:27.547Z,60.60
2022-12-28T13:44:33.614Z,60.22
2022-12-28T13:47:27.126Z,60.09
2022-12-28T13:50:21.078Z,60.21
2022-12-28T13:53:17.843Z,59.52
2022-12-28T13:56:07.657Z,61.00
2022-12-28T13:59:07.791Z,64.05
2022-12-28T14:01:56.021Z,63.47
2022-12-28T14:04:53.316Z,62.03
2022-12-28T14:07:42.234Z,60.92
2022-12-28T14:10:30.812Z,60.31
2022-12-28T14:13:20.404Z,60.55
2022-12-28T14:16:09.693Z,60.41
2022-12-28T14:18:58.460Z,60.10
2022-12-28T14:21:46.648Z,60.11
2022-12-28T14:24:35.146Z,59.60
2022-12-28T14:27:23.306Z,59.50
2022-12-28T14:30:31.160Z,61.40
2022-12-28T14:33:29.635Z,64.45
2022-12-28T14:36:24.881Z,63.41
2022-12-28T14:39:45.493Z,62.32
2022-12-28T14:42:35.520Z,60.82
2022-12-28T14:46:05.105Z,60.47
2022-12-28T14:48:45.569Z,60.43
2022-12-28T14:51:35.188Z,59.97
2022-12-28T14:54:27.266Z,60.49
2022-12-28T14:57:41.699Z,60.97
2022-12-28T15:00:34.876Z,60.43
2022-12-28T15:03:24.344Z,60.20
2022-12-28T15:06:13.268Z,60.12
2022-12-28T15:09:05.058Z,59.41
2022-12-28T15:12:10.018Z,62.59
2022-12-28T15:14:58.406Z,63.87
2022-12-28T15:17:47.754Z,62.40
2022-12-28T15:20:38.425Z,61.44
2022-12-28T15:23:26.397Z,60.64
2022-12-28T15:26:15.060Z,59.98
2022-12-28T15:29:06.236Z,60.12
2022-12-28T15:31:54.265Z,60.38
2022-12-28T15:34:43.770Z,60.76
2022-12-28T15:37:31.953Z,60.28
2022-12-28T15:40:19.647Z,59.98
2022-12-28T15:43:07.942Z,59.67
2022-12-28T15:45:58.470Z,60.03
2022-12-28T15:48:47.770Z,60.10
2022-12-28T15:51:36.107Z,60.19
2022-12-28T15:54:24.260Z,60.16
2022-12-28T15:57:14.233Z,60.07
2022-12-28T16:00:02.678Z,59.84
2022-12-28T16:02:52.803Z,59.16
2022-12-28T16:05:40.766Z,62.48
2022-12-28T16:08:29.355Z,65.13
2022-12-28T16:11:19.894Z,63.89
2022-12-28T16:14:13.265Z,62.71
2022-12-28T16:17:01.768Z,62.19
2022-12-28T16:19:49.737Z,61.63
2022-12-28T16:22:37.757Z,61.06
2022-12-28T16:25:25.981Z,61.05
2022-12-28T16:28:14.201Z,60.95
2022-12-28T16:31:03.092Z,60.63
2022-12-28T16:34:06.859Z,60.71
2022-12-28T16:36:57.282Z,60.62
2022-12-28T16:39:45.300Z,60.88
2022-12-28T16:42:33.169Z,61.01
2022-12-28T16:45:20.961Z,60.82
2022-12-28T16:48:13.312Z,61.01
2022-12-28T16:51:02.131Z,60.93
2022-12-28T16:53:50.171Z,61.16
2022-12-28T16:56:38.469Z,61.38
2022-12-28T16:59:28.943Z,61.47
2022-12-28T17:02:16.947Z,61.62
2022-12-28T17:05:05.273Z,61.92
2022-12-28T17:07:53.342Z,61.90
2022-12-28T17:10:42.581Z,61.44
2022-12-28T17:13:30.868Z,60.95
2022-12-28T17:16:18.883Z,61.00
2022-12-28T17:19:07.706Z,61.26
2022-12-28T17:21:55.839Z,61.53
2022-12-28T17:24:46.864Z,61.21
2022-12-28T17:27:35.615Z,61.53
2022-12-28T17:30:23.367Z,61.30
2022-12-28T17:33:11.768Z,61.50
2022-12-28T17:36:02.329Z,62.23
2022-12-28T17:38:51.115Z,61.90
2022-12-28T17:41:39.335Z,61.84
2022-12-28T17:44:27.378Z,61.34
2022-12-28T17:47:15.427Z,61.42
2022-12-28T17:50:04.262Z,61.53
2022-12-28T17:52:51.986Z,61.59
2022-12-28T17:55:39.944Z,61.56
2022-12-28T17:58:28.206Z,61.74
2022-12-28T18:01:16.213Z,61.99
2022-12-28T18:04:04.325Z,62.04
2022-12-28T18:06:52.203Z,62.22
2022-12-28T18:09:40.311Z,61.94
2022-12-28T18:12:28.508Z,61.95
2022-12-28T18:15:16.748Z,61.70
2022-12-28T18:18:05.417Z,61.90
2022-12-28T18:21:12.464Z,62.14
2022-12-28T18:24:03.824Z,61.77
2022-12-28T18:26:52.041Z,61.92
2022-12-28T18:29:39.961Z,61.90
2022-12-28T18:32:28.062Z,62.13
2022-12-28T18:35:17.058Z,62.10
2022-12-28T18:38:04.723Z,61.95
2022-12-28T18:40:55.074Z,62.01
2022-12-28T18:43:43.726Z,62.18
2022-12-28T18:46:32.297Z,62.06
2022-12-28T18:49:21.775Z,61.71
2022-12-28T18:52:10.179Z,61.56
2022-12-28T18:54:58.457Z,61.69
2022-12-28T18:57:47.387Z,61.75
2022-12-28T19:00:37.778Z,61.62
2022-12-28T19:03:25.885Z,61.92
2022-12-28T19:06:14.414Z,62.01
2022-12-28T19:09:05.413Z,61.99
2022-12-28T19:11:53.609Z,62.03
2022-12-28T19:14:41.454Z,61.85
2022-12-28T19:17:29.325Z,62.08
2022-12-28T19:20:17.153Z,61.94
2022-12-28T19:23:05.403Z,62.15
2022-12-28T19:25:59.164Z,62.14
2022-12-28T19:28:47.638Z,62.10
2022-12-28T19:31:35.980Z,62.11
2022-12-28T19:34:24.261Z,61.90
2022-12-28T19:37:12.522Z,61.63
2022-12-28T19:40:02.508Z,61.97
2022-12-28T19:42:50.875Z,62.18
2022-12-28T19:45:39.130Z,62.04
2022-12-28T19:48:28.337Z,62.00
2022-12-28T19:51:16.288Z,62.53
2022-12-28T19:54:04.213Z,62.42
2022-12-28T19:56:52.196Z,62.36
2022-12-28T19:59:41.292Z,62.51
2022-12-28T20:02:29.639Z,63.14
2022-12-28T20:05:17.829Z,62.94
2022-12-28T20:08:09.083Z,62.91
2022-12-28T20:10:57.499Z,62.76
2022-12-28T20:13:55.132Z,62.62
2022-12-28T20:16:44.090Z,63.27
2022-12-28T20:19:31.941Z,63.42
2022-12-28T20:22:20.125Z,63.63
2022-12-28T20:25:09.364Z,63.73
2022-12-28T20:27:57.488Z,63.89
2022-12-28T20:30:47.241Z,63.82
2022-12-28T20:33:36.944Z,63.92
2022-12-28T20:36:28.133Z,63.62
2022-12-28T20:39:16.849Z,64.18
2022-12-28T20:42:23.507Z,64.58
2022-12-28T20:45:11.320Z,64.43
2022-12-28T20:47:59.285Z,64.92
2022-12-28T20:50:50.880Z,64.84
2022-12-28T20:53:38.983Z,64.76
2022-12-28T20:56:27.404Z,64.42
2022-12-28T20:59:18.365Z,64.32
2022-12-28T21:02:07.045Z,64.24
2022-12-28T21:04:55.104Z,64.12
2022-12-28T21:07:43.183Z,64.07
2022-12-28T21:10:31.306Z,63.90
2022-12-28T21:13:19.312Z,64.39
2022-12-28T21:16:08.666Z,64.46
2022-12-28T21:18:56.751Z,64.58
2022-12-28T21:21:44.877Z,64.81
2022-12-28T21:24:33.831Z,64.83
2022-12-28T21:27:22.016Z,64.63
2022-12-28T21:30:11.033Z,64.50
2022-12-28T21:32:59.180Z,64.64
2022-12-28T21:36:06.131Z,64.49
2022-12-28T21:38:54.498Z,64.22
2022-12-28T21:41:49.312Z,64.23
2022-12-28T21:44:37.783Z,64.33
2022-12-28T21:47:27.539Z,64.09
2022-12-28T21:50:15.967Z,64.08
2022-12-28T21:53:06.676Z,64.51
2022-12-28T21:55:54.830Z,64.63
2022-12-28T21:58:46.012Z,64.81
2022-12-28T22:01:54.378Z,64.83
2022-12-28T22:05:03.216Z,64.68
2022-12-28T22:08:11.934Z,64.73
2022-12-28T22:11:21.432Z,64.89
2022-12-28T22:14:09.807Z,64.52
2022-12-28T22:16:57.846Z,64.75
2022-12-28T22:19:45.909Z,64.81
2022-12-28T22:22:33.945Z,64.91
2022-12-28T22:25:22.809Z,64.65
2022-12-28T22:28:12.531Z,64.53
2022-12-28T22:31:08.271Z,64.73
2022-12-28T22:33:59.396Z,64.78
2022-12-28T22:36:51.288Z,64.62
2022-12-28T22:39:39.587Z,64.29
2022-12-28T22:42:28.737Z,63.85
2022-12-28T22:45:20.721Z,63.78
2022-12-28T22:48:08.703Z,63.58
2022-12-28T22:51:05.964Z,63.85
2022-12-28T22:53:54.217Z,64.25
2022-12-28T22:56:42.219Z,64.25
2022-12-28T22:59:30.162Z,64.33
2022-12-28T23:02:18.101Z,64.48
2022-12-28T23:05:06.558Z,64.54
2022-12-28T23:07:54.521Z,64.23
2022-12-28T23:10:54.447Z,64.74
2022-12-28T23:13:43.715Z,64.46
2022-12-28T23:16:31.746Z,64.56
2022-12-28T23:19:38.450Z,64.75
2022-12-28T23:22:48.966Z,64.66
2022-12-28T23:25:59.209Z,64.61
2022-12-28T23:28:47.294Z,64.49
2022-12-28T23:31:35.471Z,64.54
2022-12-28T23:34:23.134Z,65.20
2022-12-28T23:37:11.406Z,64.60
2022-12-28T23:39:59.586Z,64.37
2022-12-28T23:42:47.768Z,64.34
2022-12-28T23:45:36.571Z,64.06
2022-12-28T23:48:24.840Z,64.14
2022-12-28T23:51:12.911Z,64.17
2022-12-28T23:54:00.956Z,64.44
2022-12-28T23:56:49.355Z,64.08
2022-12-28T23:59:37.558Z,64.21
